Terminal Aerodrome Forecast
Issued by NWS

Home | Current Version | Previous Version | Text Only | Print | Product List | Glossary On
Versions: 1 2 3 4 5 6 7 8 9 10 11 12 13 14 15 16 17 18 19 20 21 22 23 24 25 26
000
FTUS42 KCAE 231428 AAA
TAFDNL
TAF AMD
KDNL 231428Z 2314/2412 14007KT P6SM SCT060
     FM231600 15007KT P6SM VCSH BKN035
     FM232200 17008KT 3SM SHRA VCTS OVC025CB WS015/15030KT
      TEMPO 2323/2403 +TSRA=

USA.gov is the U.S. government's official web portal to all federal, state and local government web resources and services.